Time;durP1;ratioP1;P1;durP2;ratioP2;P2;SDS_P1;SDS_P2;PMS_P1;PMS_P2;Temp;Humidity;BMP_temperature;BMP_pressure;BME280_temperature;BME280_humidity;BME280_pressure;Samples;Min_cycle;Max_cycle;Signal;HPM_P1;HPM_P2
2022/08/21 00:01:23;;;;;;;7.70;4.60;;;;;;;14.29;85.76;101717.41;5012066;28;20594;-80
2022/08/21 00:03:49;;;;;;;7.00;4.40;;;;;;;14.20;86.99;101713.75;5014447;28;20193;-81
2022/08/21 00:06:15;;;;;;;6.53;4.70;;;;;;;14.12;87.98;101711.03;4986508;28;20192;-82
2022/08/21 00:08:40;;;;;;;5.77;4.83;;;;;;;14.12;87.82;101708.47;5015105;28;20183;-78
2022/08/21 00:11:06;;;;;;;7.20;4.83;;;;;;;14.09;87.84;101707.53;4997854;28;20222;-82
2022/08/21 00:13:32;;;;;;;10.80;4.90;;;;;;;14.14;86.54;101711.06;5015422;28;20197;-80
2022/08/21 00:15:59;;;;;;;6.77;5.17;;;;;;;14.02;86.90;101705.66;5010965;28;20199;-81
2022/08/21 00:18:25;;;;;;;8.00;5.47;;;;;;;13.95;87.99;101708.97;4985479;28;20286;-80
2022/08/21 00:20:50;;;;;;;8.37;4.90;;;;;;;14.01;87.29;101712.53;4995310;28;20206;-80
2022/08/21 00:23:17;;;;;;;7.47;5.30;;;;;;;14.00;87.44;101710.78;5012847;28;20712;-81
2022/08/21 00:25:44;;;;;;;8.73;5.23;;;;;;;13.94;87.08;101707.22;5015196;28;20187;-82
2022/08/21 00:28:11;;;;;;;7.97;5.53;;;;;;;13.93;87.01;101701.22;5000669;28;20920;-83
2022/08/21 00:30:37;;;;;;;6.20;4.97;;;;;;;13.85;87.14;101699.34;5011024;28;20271;-82
2022/08/21 00:33:03;;;;;;;8.93;5.53;;;;;;;13.87;87.41;101700.22;4980768;28;20218;-82
2022/08/21 00:35:36;;;;;;;10.33;5.90;;;;;;;13.88;86.86;101704.53;4981419;28;20286;-82
2022/08/21 00:38:04;;;;;;;8.20;5.90;;;;;;;13.78;87.54;101700.94;5013245;28;20183;-82
2022/08/21 00:40:39;;;;;;;10.67;5.97;;;;;;;13.77;87.57;101694.00;5007448;28;20206;-82
2022/08/21 00:43:08;;;;;;;6.30;5.00;;;;;;;13.73;87.93;101699.09;4991776;28;20213;-80
2022/08/21 00:45:34;;;;;;;7.70;5.13;;;;;;;13.69;88.10;101694.72;5012432;28;20572;-82
2022/08/21 00:48:00;;;;;;;7.10;5.57;;;;;;;13.67;88.19;101697.25;5004422;28;20194;-81
2022/08/21 00:50:31;;;;;;;6.03;4.83;;;;;;;13.71;87.94;101693.06;4995273;28;20207;-81
2022/08/21 00:52:57;;;;;;;10.17;5.50;;;;;;;13.69;88.60;101692.13;4993689;28;20230;-81
2022/08/21 00:55:23;;;;;;;7.60;4.90;;;;;;;13.63;88.04;101692.88;4996656;28;20203;-81
2022/08/21 00:57:53;;;;;;;5.57;4.90;;;;;;;13.62;87.47;101698.00;4995033;28;20195;-80
2022/08/21 01:00:30;;;;;;;6.47;5.13;;;;;;;13.54;88.07;101704.69;5014855;28;20211;-80
2022/08/21 01:02:57;;;;;;;8.87;4.80;;;;;;;13.44;88.50;101698.47;5009560;28;20281;-80
2022/08/21 01:05:24;;;;;;;8.63;5.00;;;;;;;13.47;88.43;101698.53;5014781;28;20236;-80
2022/08/21 01:07:49;;;;;;;6.17;4.93;;;;;;;13.41;89.19;101703.56;4986039;28;20249;-81
2022/08/21 01:10:15;;;;;;;7.40;5.20;;;;;;;13.48;88.99;101709.72;5010495;28;20211;-82
2022/08/21 01:12:41;;;;;;;6.40;5.07;;;;;;;13.46;88.39;101709.69;4994211;28;20279;-84
2022/08/21 01:15:10;;;;;;;7.43;4.73;;;;;;;13.44;87.75;101698.47;5008982;28;20283;-80
2022/08/21 01:17:36;;;;;;;8.30;4.60;;;;;;;13.35;87.91;101707.72;5009627;28;20277;-81
2022/08/21 01:20:08;;;;;;;7.60;5.20;;;;;;;13.35;88.83;101706.00;5007716;28;20270;-81
2022/08/21 01:22:33;;;;;;;6.87;5.20;;;;;;;13.37;89.09;101701.75;4995398;28;20271;-83
2022/08/21 01:25:01;;;;;;;10.33;5.60;;;;;;;13.36;89.27;101706.88;5013453;28;20191;-82
2022/08/21 01:27:27;;;;;;;8.77;5.37;;;;;;;13.39;89.33;101701.81;4994749;28;20195;-82
2022/08/21 01:29:58;;;;;;;7.67;5.33;;;;;;;13.38;89.52;101703.50;4995983;28;20274;-81
2022/08/21 01:32:24;;;;;;;5.60;5.00;;;;;;;13.42;88.88;101707.00;5003943;28;20607;-83
2022/08/21 01:34:51;;;;;;;7.27;5.40;;;;;;;13.33;89.78;101702.53;5013786;28;20231;-83
2022/08/21 01:37:19;;;;;;;6.60;4.57;;;;;;;13.30;90.05;101699.03;5000422;28;20193;-81
2022/08/21 01:39:45;;;;;;;6.33;4.97;;;;;;;13.20;90.13;101692.78;4995169;28;20201;-84
2022/08/21 01:42:10;;;;;;;9.00;5.17;;;;;;;13.14;90.13;101695.25;5010435;28;20183;-82
2022/08/21 01:44:36;;;;;;;9.47;5.20;;;;;;;13.12;90.16;101694.31;5011394;28;20253;-83
2022/08/21 01:47:04;;;;;;;6.50;5.23;;;;;;;13.07;90.14;101695.06;4995178;28;20321;-83
2022/08/21 01:49:29;;;;;;;8.13;5.53;;;;;;;13.08;89.67;101696.81;5012028;28;20198;-81
2022/08/21 01:51:55;;;;;;;6.53;5.23;;;;;;;13.14;89.44;101697.81;4991697;28;20223;-82
2022/08/21 01:54:20;;;;;;;6.37;5.30;;;;;;;13.18;89.71;101699.63;4995808;28;20203;-82
2022/08/21 01:56:49;;;;;;;6.73;4.77;;;;;;;13.12;89.42;101693.47;5011961;28;20212;-81
2022/08/21 01:59:14;;;;;;;6.77;5.10;;;;;;;13.03;89.73;101694.09;5007180;28;20615;-81
2022/08/21 02:01:40;;;;;;;6.87;4.80;;;;;;;12.99;90.41;101692.31;4996843;28;20665;-81
2022/08/21 02:04:07;;;;;;;7.47;4.57;;;;;;;12.93;90.54;101692.13;4996411;28;20195;-81
2022/08/21 02:06:34;;;;;;;7.77;4.90;;;;;;;12.91;90.65;101688.66;4974921;28;20261;-81
2022/08/21 02:09:01;;;;;;;7.07;5.10;;;;;;;12.86;90.92;101693.69;5009969;28;20199;-81
2022/08/21 02:11:26;;;;;;;5.77;5.03;;;;;;;12.87;90.48;101694.56;5010293;28;20322;-81
2022/08/21 02:13:52;;;;;;;6.00;5.17;;;;;;;12.87;89.96;101694.56;5008808;28;20697;-80
2022/08/21 02:16:17;;;;;;;6.47;5.00;;;;;;;12.82;90.32;101696.16;4994954;28;20190;-83
2022/08/21 02:18:43;;;;;;;6.77;4.90;;;;;;;12.78;89.94;101697.78;5014568;28;20289;-81
2022/08/21 02:21:09;;;;;;;7.60;5.07;;;;;;;12.72;90.76;101689.91;4994691;28;20224;-81
2022/08/21 02:23:35;;;;;;;9.40;5.10;;;;;;;12.77;90.08;101696.03;5005274;28;20222;-80
2022/08/21 02:26:03;;;;;;;9.70;5.17;;;;;;;12.72;89.59;101692.50;5006299;28;20183;-79
2022/08/21 02:28:29;;;;;;;6.63;5.20;;;;;;;12.74;89.70;101689.97;4994609;28;20221;-79
2022/08/21 02:30:56;;;;;;;9.63;5.70;;;;;;;12.66;89.83;101691.47;5006020;28;20212;-81
2022/08/21 02:33:22;;;;;;;6.53;5.33;;;;;;;12.67;90.11;101688.94;5011426;28;20641;-81
2022/08/21 02:35:49;;;;;;;6.20;5.10;;;;;;;12.71;90.88;101693.31;5010063;28;20188;-83
2022/08/21 02:38:18;;;;;;;9.00;5.17;;;;;;;12.66;91.04;101692.34;5011630;28;20194;-77
2022/08/21 02:40:47;;;;;;;10.10;6.00;;;;;;;12.66;91.56;101684.63;4982052;28;20297;-80
2022/08/21 02:43:14;;;;;;;9.20;5.80;;;;;;;12.63;91.54;101681.97;5009357;28;20187;-81
2022/08/21 02:45:41;;;;;;;6.77;5.40;;;;;;;12.62;91.14;101680.25;4974917;28;20277;-80
2022/08/21 02:48:09;;;;;;;9.97;5.87;;;;;;;12.57;90.97;101679.28;4996415;28;20191;-83
2022/08/21 02:50:38;;;;;;;7.00;5.50;;;;;;;12.55;90.66;101680.94;4997971;28;20215;-84
2022/08/21 02:53:06;;;;;;;9.37;5.33;;;;;;;12.54;90.85;101676.63;4997566;28;20257;-83
2022/08/21 02:55:33;;;;;;;8.97;5.27;;;;;;;12.46;91.36;101670.44;4995640;28;20203;-82
2022/08/21 02:57:59;;;;;;;6.97;5.27;;;;;;;12.44;91.49;101668.66;4999754;28;20282;-83
2022/08/21 03:00:28;;;;;;;7.37;5.80;;;;;;;12.40;91.27;101667.69;5008227;28;20697;-82
2022/08/21 03:02:55;;;;;;;8.30;5.10;;;;;;;12.47;90.86;101671.28;5011144;28;20205;-83
2022/08/21 03:05:21;;;;;;;7.70;5.40;;;;;;;12.43;91.21;101669.47;5001607;28;20231;-81
2022/08/21 03:07:47;;;;;;;8.63;5.60;;;;;;;12.43;91.24;101667.78;5007232;28;20194;-81
2022/08/21 03:10:14;;;;;;;9.17;5.87;;;;;;;12.44;90.90;101672.09;5007841;28;20203;-81
2022/08/21 03:12:40;;;;;;;6.30;5.33;;;;;;;12.44;90.96;101668.66;4978266;28;20241;-82
2022/08/21 03:15:17;;;;;;;7.13;6.13;;;;;;;12.40;91.76;101661.72;5011141;28;20231;-80
2022/08/21 03:17:43;;;;;;;7.83;6.07;;;;;;;12.46;91.64;101667.00;5004806;28;20192;-80
2022/08/21 03:20:10;;;;;;;8.37;6.10;;;;;;;12.49;92.07;101662.78;5012134;28;20253;-80
2022/08/21 03:22:36;;;;;;;8.10;5.77;;;;;;;12.41;91.99;101666.91;4993546;28;20188;-82
2022/08/21 03:25:03;;;;;;;10.10;6.63;;;;;;;12.40;92.27;101661.72;4994837;28;20175;-82
2022/08/21 03:27:30;;;;;;;11.53;6.33;;;;;;;12.40;92.24;101660.00;4993630;28;20616;-82
2022/08/21 03:29:57;;;;;;;6.60;5.90;;;;;;;12.39;91.61;101660.84;4995909;28;20688;-80
2022/08/21 03:32:23;;;;;;;8.07;6.47;;;;;;;12.36;91.55;101668.44;4994795;28;20211;-79
2022/08/21 03:34:48;;;;;;;6.47;5.87;;;;;;;12.32;91.79;101660.63;5011049;28;20282;-82
2022/08/21 03:37:15;;;;;;;8.97;7.00;;;;;;;12.31;91.33;101667.47;4999949;28;20230;-80
2022/08/21 03:39:41;;;;;;;8.47;6.93;;;;;;;12.29;91.63;101665.69;4989240;28;20531;-82
2022/08/21 03:42:07;;;;;;;8.07;6.50;;;;;;;12.22;91.59;101669.78;4979841;28;20187;-81
2022/08/21 03:44:34;;;;;;;9.97;6.93;;;;;;;12.21;91.94;101672.34;4978958;28;20195;-82
2022/08/21 03:47:00;;;;;;;8.93;7.10;;;;;;;12.21;92.29;101669.78;5010733;28;20668;-81
2022/08/21 03:49:25;;;;;;;8.83;6.73;;;;;;;12.27;92.30;101662.22;5010946;28;20259;-80
2022/08/21 03:51:51;;;;;;;8.33;7.07;;;;;;;12.29;92.67;101666.56;5007306;28;20900;-81
2022/08/21 03:54:16;;;;;;;9.33;7.40;;;;;;;12.30;93.14;101667.44;5009669;28;20191;-81
2022/08/21 03:56:42;;;;;;;12.23;7.83;;;;;;;12.33;93.28;101663.25;5011555;28;20195;-80
2022/08/21 03:59:07;;;;;;;9.43;7.97;;;;;;;12.35;93.76;101669.28;5014015;28;20287;-80
2022/08/21 04:01:33;;;;;;;8.83;7.60;;;;;;;12.39;93.18;101673.66;5015972;28;20219;-83
2022/08/21 04:03:59;;;;;;;11.13;7.90;;;;;;;12.40;93.40;101672.00;5014771;28;20210;-83
2022/08/21 04:06:26;;;;;;;11.90;7.77;;;;;;;12.38;93.92;101669.38;5014395;28;20187;-81
2022/08/21 04:08:52;;;;;;;10.43;7.50;;;;;;;12.38;93.94;101671.94;5005346;28;20210;-82
2022/08/21 04:11:18;;;;;;;11.33;8.17;;;;;;;12.40;94.04;101672.84;4994789;28;20206;-80
2022/08/21 04:13:44;;;;;;;8.67;7.87;;;;;;;12.41;93.86;101673.72;5013150;28;20203;-82
2022/08/21 04:16:10;;;;;;;9.47;7.93;;;;;;;12.46;93.91;101677.28;4994921;28;20607;-81
2022/08/21 04:18:35;;;;;;;8.87;8.00;;;;;;;12.37;94.20;101677.91;4985727;28;20175;-82
2022/08/21 04:21:02;;;;;;;8.07;7.27;;;;;;;12.35;94.24;101673.56;5011940;28;20218;-80
2022/08/21 04:23:29;;;;;;;8.87;7.00;;;;;;;12.34;94.69;101672.69;5000422;28;20187;-80
2022/08/21 04:25:56;;;;;;;10.40;6.77;;;;;;;12.37;93.97;101679.59;5012555;28;20206;-82
2022/08/21 04:28:23;;;;;;;13.63;6.90;;;;;;;12.36;93.68;101680.44;5015826;28;20193;-79
2022/08/21 04:30:50;;;;;;;7.83;6.60;;;;;;;12.33;93.87;101676.09;4974808;28;20294;-81
2022/08/21 04:33:16;;;;;;;8.87;6.50;;;;;;;12.31;93.39;101677.75;5004654;28;20211;-81
2022/08/21 04:35:42;;;;;;;8.97;7.20;;;;;;;12.30;93.54;101681.13;5014738;28;20202;-81
2022/08/21 04:38:08;;;;;;;9.40;6.67;;;;;;;12.20;93.94;101676.59;5013684;28;20198;-81
2022/08/21 04:40:33;;;;;;;8.03;6.03;;;;;;;12.26;93.33;101678.47;5010202;28;20218;-80
2022/08/21 04:43:03;;;;;;;7.17;5.67;;;;;;;12.30;92.83;101678.56;5012090;28;20218;-80
2022/08/21 04:45:31;;;;;;;6.67;5.90;;;;;;;12.31;93.04;101680.31;5013308;28;20191;-81
2022/08/21 04:47:59;;;;;;;8.00;5.37;;;;;;;12.38;93.30;101682.22;5014879;28;20218;-81
2022/08/21 04:50:36;;;;;;;7.57;6.17;;;;;;;12.43;93.56;101680.63;4984502;28;20215;-82
2022/08/21 04:53:12;;;;;;;9.87;5.90;;;;;;;12.50;93.15;101687.63;5010979;28;20219;-81
2022/08/21 04:55:39;;;;;;;7.40;5.80;;;;;;;12.53;94.08;101687.72;5011766;28;20195;-82
2022/08/21 04:58:08;;;;;;;7.57;6.10;;;;;;;12.57;93.45;101696.38;4982190;28;20546;-83
2022/08/21 05:00:34;;;;;;;7.60;5.40;;;;;;;12.59;93.78;101693.00;4981454;28;20254;-81
2022/08/21 05:03:01;;;;;;;6.83;6.13;;;;;;;12.67;93.51;101700.94;5005906;28;20190;-81
2022/08/21 05:05:28;;;;;;;9.20;6.33;;;;;;;12.75;93.73;101700.28;5008462;28;20183;-82
2022/08/21 05:07:56;;;;;;;8.63;6.90;;;;;;;12.84;94.11;101705.66;5011457;28;20184;-80
2022/08/21 05:10:25;;;;;;;7.87;6.60;;;;;;;12.91;94.21;101696.38;5009335;28;20691;-80
2022/08/21 05:12:51;;;;;;;8.83;6.27;;;;;;;12.96;94.07;101689.63;5015565;28;20720;-82
2022/08/21 05:15:16;;;;;;;8.43;6.57;;;;;;;13.02;94.47;101687.22;5016223;28;20195;-81
2022/08/21 05:17:42;;;;;;;10.03;6.13;;;;;;;13.11;94.29;101691.75;5012513;28;20282;-82
2022/08/21 05:20:10;;;;;;;10.00;6.73;;;;;;;13.20;93.93;101695.38;4997994;28;20238;-81
2022/08/21 05:22:36;;;;;;;9.97;6.23;;;;;;;13.26;94.13;101692.91;5015348;28;20191;-81
2022/08/21 05:25:01;;;;;;;7.77;6.30;;;;;;;13.39;93.77;101694.09;4998228;28;20195;-80
2022/08/21 05:27:29;;;;;;;7.83;5.90;;;;;;;13.51;93.78;101699.47;4997840;28;20191;-81
2022/08/21 05:29:56;;;;;;;7.60;5.70;;;;;;;13.62;93.37;101700.59;5010872;28;20274;-80
2022/08/21 05:32:22;;;;;;;10.10;6.00;;;;;;;13.68;92.73;101691.25;5008917;28;20203;-81
2022/08/21 05:34:47;;;;;;;9.43;6.97;;;;;;;13.73;92.99;101696.50;4991324;28;20658;-79
2022/08/21 05:37:13;;;;;;;9.57;5.80;;;;;;;13.71;93.20;101700.78;5012287;28;20279;-80
2022/08/21 05:39:39;;;;;;;7.43;5.43;;;;;;;13.81;91.85;101700.13;5014764;28;20187;-79
2022/08/21 05:42:05;;;;;;;7.27;5.50;;;;;;;13.96;91.78;101696.16;5012982;28;20697;-81
2022/08/21 05:44:30;;;;;;;8.10;5.57;;;;;;;14.11;90.92;101695.53;5009259;28;20190;-78
2022/08/21 05:47:05;;;;;;;7.13;5.20;;;;;;;14.20;90.18;101698.28;4994548;28;20253;-80
2022/08/21 05:49:30;;;;;;;10.43;5.97;;;;;;;14.42;89.90;101703.03;5014184;28;20270;-79
2022/08/21 05:51:56;;;;;;;8.47;5.33;;;;;;;14.52;89.25;101695.50;5002110;28;20791;-79
2022/08/21 05:54:21;;;;;;;6.83;5.00;;;;;;;14.60;88.69;101698.19;5010137;28;20672;-80
2022/08/21 05:56:46;;;;;;;6.90;4.97;;;;;;;14.81;88.22;101694.25;5006172;28;20291;-80
2022/08/21 05:59:12;;;;;;;8.03;5.40;;;;;;;15.02;87.12;101688.56;4994526;28;20223;-80
2022/08/21 06:01:38;;;;;;;5.47;4.93;;;;;;;14.87;87.81;101691.75;5001050;28;20223;-80
2022/08/21 06:04:04;;;;;;;8.00;4.80;;;;;;;14.87;88.20;101686.59;4992228;28;20202;-83
2022/08/21 06:06:30;;;;;;;5.93;4.80;;;;;;;14.89;87.43;101681.47;5012158;28;20205;-80
2022/08/21 06:08:55;;;;;;;8.80;5.07;;;;;;;14.91;88.27;101684.97;5009592;28;20226;-81
2022/08/21 06:11:21;;;;;;;8.43;5.27;;;;;;;14.95;88.04;101689.28;5008667;28;20214;-79
2022/08/21 06:13:46;;;;;;;7.33;4.90;;;;;;;15.04;88.03;101684.28;4992554;28;20235;-81
2022/08/21 06:16:14;;;;;;;7.73;4.70;;;;;;;15.04;87.42;101687.72;4995673;28;20198;-81
2022/08/21 06:18:41;;;;;;;7.80;4.67;;;;;;;15.14;86.91;101684.44;5007166;28;20238;-79
2022/08/21 06:21:07;;;;;;;5.40;4.70;;;;;;;15.27;86.17;101686.34;5009060;28;20621;-79
2022/08/21 06:23:33;;;;;;;6.97;4.60;;;;;;;15.35;86.36;101689.06;5007995;28;20198;-80
2022/08/21 06:26:00;;;;;;;8.93;5.07;;;;;;;15.42;86.61;101685.72;5006317;28;20237;-80
2022/08/21 06:28:25;;;;;;;7.00;4.97;;;;;;;15.50;86.33;101684.09;4980083;28;20191;-81
2022/08/21 06:30:51;;;;;;;8.03;4.60;;;;;;;15.56;86.76;101690.19;5007550;28;20223;-82
2022/08/21 06:33:16;;;;;;;7.57;4.77;;;;;;;15.62;86.30;101692.00;5010051;28;20202;-82
2022/08/21 06:35:42;;;;;;;7.03;4.80;;;;;;;15.67;86.17;101682.59;5004061;28;20678;-81
2022/08/21 06:38:07;;;;;;;6.07;4.87;;;;;;;15.76;85.21;101687.88;5012224;28;21609;-80
2022/08/21 06:40:33;;;;;;;8.57;5.20;;;;;;;15.85;85.59;101688.00;5006790;28;20254;-80
2022/08/21 06:43:05;;;;;;;7.50;4.47;;;;;;;15.93;85.36;101689.78;5009024;28;20279;-80
2022/08/21 06:45:31;;;;;;;5.23;4.70;;;;;;;16.00;84.41;101690.72;4997665;28;20209;-80
2022/08/21 06:47:56;;;;;;;8.07;4.33;;;;;;;16.12;83.81;101685.72;4991993;28;20186;-79
2022/08/21 06:50:22;;;;;;;8.27;4.57;;;;;;;16.35;82.37;101686.81;4994069;28;20230;-80
2022/08/21 06:52:47;;;;;;;4.73;3.93;;;;;;;16.58;81.52;101680.16;5011791;28;20203;-82
2022/08/21 06:55:12;;;;;;;9.20;4.47;;;;;;;16.67;80.71;101683.66;5011922;28;20784;-81
2022/08/21 06:57:38;;;;;;;6.67;3.93;;;;;;;16.83;79.99;101679.47;5010219;28;20198;-79
2022/08/21 07:00:06;;;;;;;5.73;3.80;;;;;;;16.91;79.50;101681.25;4992207;28;20754;-81
2022/08/21 07:02:33;;;;;;;11.10;4.50;;;;;;;17.11;78.52;101679.69;4994599;28;20215;-81
2022/08/21 07:04:59;;;;;;;8.03;3.57;;;;;;;17.43;77.00;101674.72;5006726;28;20191;-79
2022/08/21 07:07:24;;;;;;;4.73;3.23;;;;;;;17.81;74.45;101675.72;5011977;28;20201;-80
2022/08/21 07:09:50;;;;;;;5.20;3.30;;;;;;;18.25;72.42;101661.16;4995342;28;20195;-80
2022/08/21 07:12:15;;;;;;;6.27;3.20;;;;;;;18.01;73.22;101653.34;4984658;28;20290;-80
2022/08/21 07:14:42;;;;;;;4.07;3.00;;;;;;;17.94;73.23;101655.06;4992374;28;20187;-81
2022/08/21 07:17:07;;;;;;;4.00;2.77;;;;;;;17.83;71.77;101658.47;5008867;28;20219;-82
2022/08/21 07:19:32;;;;;;;4.53;2.67;;;;;;;17.88;71.59;101651.56;4994598;28;20218;-81
2022/08/21 07:22:01;;;;;;;6.70;3.30;;;;;;;18.19;72.14;101650.78;4989381;28;20397;-81
2022/08/21 07:24:27;;;;;;;6.63;3.00;;;;;;;18.69;70.20;101649.09;5005350;28;20665;-79
2022/08/21 07:26:52;;;;;;;5.87;3.37;;;;;;;18.79;70.90;101641.28;5004882;28;20199;-80
2022/08/21 07:29:18;;;;;;;5.33;3.10;;;;;;;18.95;69.73;101639.53;5013277;28;20393;-80
2022/08/21 07:31:44;;;;;;;5.80;2.87;;;;;;;19.24;69.87;101642.97;5011831;28;20222;-81
2022/08/21 07:34:09;;;;;;;4.30;2.57;;;;;;;19.30;68.21;101638.59;5013643;28;20186;-81
2022/08/21 07:36:35;;;;;;;8.93;2.70;;;;;;;19.27;68.20;101636.03;5012540;28;20581;-81
2022/08/21 07:39:00;;;;;;;6.43;2.80;;;;;;;19.37;67.82;101636.84;4997110;28;20199;-80
2022/08/21 07:41:28;;;;;;;5.77;2.87;;;;;;;19.72;66.46;101634.97;5014043;28;20270;-80
2022/08/21 07:43:57;;;;;;;5.83;2.80;;;;;;;19.87;64.67;101638.38;5013419;28;20210;-79
2022/08/21 07:46:23;;;;;;;5.63;2.70;;;;;;;19.84;65.14;101634.88;5000377;28;20201;-79
2022/08/21 07:48:48;;;;;;;6.07;2.77;;;;;;;19.93;63.71;101634.84;4997997;28;20249;-81
2022/08/21 07:51:16;;;;;;;5.47;3.07;;;;;;;20.03;63.77;101632.19;5015401;28;20211;-80
2022/08/21 07:53:42;;;;;;;4.97;2.40;;;;;;;19.78;64.83;101633.22;5015352;28;20226;-80
2022/08/21 07:56:08;;;;;;;4.43;2.60;;;;;;;19.96;64.54;101633.09;5006349;28;20190;-80
2022/08/21 07:58:34;;;;;;;6.03;2.80;;;;;;;20.49;63.76;101624.94;5014856;28;21113;-80
2022/08/21 08:00:59;;;;;;;4.30;2.37;;;;;;;20.68;63.24;101629.97;5014472;28;20265;-81
2022/08/21 08:03:25;;;;;;;4.50;2.30;;;;;;;20.96;61.13;101614.97;5011934;28;20187;-81
2022/08/21 08:05:51;;;;;;;3.20;2.10;;;;;;;21.14;61.04;101618.22;5015170;28;20217;-80
2022/08/21 08:08:17;;;;;;;4.10;1.83;;;;;;;21.07;59.78;101613.09;5005476;28;20206;-80
2022/08/21 08:10:43;;;;;;;4.47;2.07;;;;;;;21.38;60.68;101614.47;5005449;28;20292;-81
2022/08/21 08:13:09;;;;;;;3.77;2.13;;;;;;;21.39;59.14;101614.47;4996548;28;20251;-80
2022/08/21 08:15:36;;;;;;;4.67;2.00;;;;;;;21.44;58.56;101611.78;4992906;28;20202;-80
2022/08/21 08:18:01;;;;;;;6.30;1.93;;;;;;;21.56;58.30;101611.66;4996668;28;20195;-81
2022/08/21 08:20:27;;;;;;;5.00;2.00;;;;;;;21.47;59.11;101596.97;4981812;28;20600;-79
2022/08/21 08:22:54;;;;;;;3.57;1.97;;;;;;;22.01;57.34;101601.44;5012743;28;20264;-81
2022/08/21 08:25:23;;;;;;;5.23;2.10;;;;;;;22.52;56.33;101593.69;5012052;28;20191;-79
2022/08/21 08:27:49;;;;;;;4.57;2.00;;;;;;;22.62;55.19;101590.03;4993833;28;20637;-79
2022/08/21 08:30:19;;;;;;;4.70;2.10;;;;;;;22.66;54.18;101600.41;5012611;28;20214;-79
2022/08/21 08:32:45;;;;;;;4.43;1.80;;;;;;;22.93;54.39;101589.44;4994296;28;20301;-79
2022/08/21 08:35:11;;;;;;;5.70;2.00;;;;;;;23.06;51.65;101588.31;4996357;28;20673;-79
2022/08/21 08:37:39;;;;;;;4.03;2.20;;;;;;;22.71;53.38;101587.25;5012355;28;20183;-79
2022/08/21 08:40:10;;;;;;;3.50;2.20;;;;;;;22.82;53.78;101587.91;4998351;28;20242;-80
2022/08/21 08:42:36;;;;;;;4.47;2.00;;;;;;;23.18;51.52;101575.00;4989443;28;20222;-80
2022/08/21 08:45:05;;;;;;;5.93;2.00;;;;;;;23.43;50.09;101585.84;4982876;28;20194;-79
2022/08/21 08:47:34;;;;;;;3.30;2.20;;;;;;;24.15;49.42;101579.81;4981069;28;20218;-79
2022/08/21 08:50:07;;;;;;;5.50;1.90;;;;;;;23.92;48.67;101589.09;5014258;28;20290;-80
2022/08/21 08:52:42;;;;;;;4.20;1.80;;;;;;;23.84;49.12;101583.19;5011351;28;20211;-80
2022/08/21 08:55:20;;;;;;;4.67;2.20;;;;;;;23.51;49.61;101581.28;4983671;28;20737;-79
2022/08/21 08:57:47;;;;;;;5.67;2.03;;;;;;;23.76;50.01;101578.09;5009947;28;20190;-79
2022/08/21 09:00:15;;;;;;;5.90;2.20;;;;;;;24.18;49.01;101566.63;5013875;28;20215;-79
2022/08/21 09:02:43;;;;;;;5.40;1.90;;;;;;;24.75;47.22;101567.81;5013728;28;20266;-79
2022/08/21 09:05:41;;;;;;;3.25;1.90;;;;;;;24.78;47.86;101567.72;4995472;28;20656;-80
2022/08/21 09:08:23;;;;;;;4.55;2.13;;;;;;;24.87;46.13;101562.22;5010232;28;20593;-78
2022/08/21 09:11:04;;;;;;;3.70;1.75;;;;;;;24.89;47.73;101560.44;5013707;28;20218;-79
2022/08/21 09:14:07;;;;;;;5.13;2.05;;;;;;;25.07;46.90;101565.16;5010889;28;20211;-80
2022/08/21 09:16:55;;;;;;;6.43;2.20;;;;;;;25.10;46.29;101558.97;5010276;28;20249;-81
2022/08/21 09:19:46;;;;;;;4.65;1.85;;;;;;;24.49;46.73;101549.25;4992973;28;20219;-80
2022/08/21 09:22:40;;;;;;;5.93;1.90;;;;;;;23.95;48.32;101555.03;5015469;28;20266;-80
2022/08/21 09:25:25;;;;;;;6.87;2.27;;;;;;;24.85;46.31;101547.44;4996018;28;20195;-80
2022/08/21 09:27:51;;;;;;;6.30;2.40;;;;;;;25.54;45.53;101542.78;5011199;28;20294;-79
2022/08/21 09:30:18;;;;;;;3.78;2.20;;;;;;;25.20;46.09;101545.56;5009398;28;20336;-79
2022/08/21 09:32:43;;;;;;;4.30;2.03;;;;;;;24.95;46.19;101544.50;5004799;28;20227;-79
2022/08/21 09:35:16;;;;;;;5.00;1.83;;;;;;;25.32;45.67;101546.97;4995231;28;20608;-80
2022/08/21 09:38:23;;;;;;;5.53;2.00;;;;;;;25.66;45.21;101539.78;4993490;28;20199;-79
2022/08/21 09:40:56;;;;;;;4.65;1.90;;;;;;;25.95;46.28;101537.13;5005880;28;20296;-80
2022/08/21 09:43:25;;;;;;;4.40;2.08;;;;;;;26.06;44.47;101533.22;5006524;28;20195;-80
2022/08/21 09:46:12;;;;;;;8.50;2.17;;;;;;;26.10;44.58;101545.34;4998585;28;20197;-80
2022/08/21 09:48:53;;;;;;;4.03;2.00;;;;;;;26.41;44.74;101537.28;5009219;28;20202;-81
2022/08/21 09:51:32;;;;;;;6.00;2.00;;;;;;;26.71;44.55;101526.59;5011888;28;20798;-79
2022/08/21 09:54:18;;;;;;;3.90;2.20;;;;;;;27.33;44.11;101524.28;4978235;28;20195;-79
2022/08/21 09:59:51;;;;;;;3.95;2.05;;;;;;;28.02;41.55;101524.16;5001142;28;20567;-80
2022/08/21 10:02:33;;;;;;;5.47;2.10;;;;;;;28.39;41.37;101527.84;5013172;28;20206;-78
2022/08/21 10:05:01;;;;;;;7.70;2.58;;;;;;;28.06;40.42;101529.25;5009355;28;20274;-81
2022/08/21 10:07:30;;;;;;;7.25;2.10;;;;;;;28.53;41.09;101528.09;4994796;28;20185;-81
2022/08/21 10:10:07;;;;;;;7.50;2.55;;;;;;;28.32;38.62;101522.88;5008751;28;20222;-80
2022/08/21 10:13:11;;;;;;;6.80;2.28;;;;;;;28.55;39.49;101523.59;4980293;28;20203;-80
2022/08/21 10:16:15;;;;;;;6.82;2.08;;;;;;;29.14;39.49;101528.88;5005746;28;20223;-81
2022/08/21 10:18:55;;;;;;;6.65;2.58;;;;;;;28.52;39.36;101528.16;5006390;28;20191;-81
2022/08/21 10:21:50;;;;;;;4.45;2.30;;;;;;;27.30;40.24;101533.16;5009679;28;20210;-81
2022/08/21 10:24:24;;;;;;;7.32;2.53;;;;;;;27.34;42.06;101524.25;4989909;28;20191;-80
2022/08/21 10:27:19;;;;;;;8.07;2.70;;;;;;;27.48;40.62;101528.97;5008458;28;20191;-81
2022/08/21 10:29:54;;;;;;;5.70;2.60;;;;;;;27.71;40.65;101524.50;4998835;28;20621;-79
2022/08/21 10:32:58;;;;;;;6.90;3.08;;;;;;;27.00;41.34;101523.78;4995156;28;20253;-80
2022/08/21 10:35:36;;;;;;;6.43;2.45;;;;;;;27.99;41.57;101526.91;4956499;28;20257;-79
2022/08/21 10:38:29;;;;;;;6.32;2.30;;;;;;;28.31;39.82;101523.78;5004723;28;20218;-79
2022/08/21 10:41:22;;;;;;;7.78;2.35;;;;;;;29.53;38.66;101513.81;5007694;28;20215;-81
2022/08/21 10:44:29;;;;;;;6.63;2.33;;;;;;;29.80;37.29;101509.88;5009847;28;20219;-81
2022/08/21 10:47:01;;;;;;;8.20;2.78;;;;;;;29.50;37.78;101513.94;4997928;28;20282;-80
2022/08/21 10:49:46;;;;;;;5.43;2.30;;;;;;;29.62;37.50;101516.88;5008877;28;20206;-81
2022/08/21 10:52:51;;;;;;;4.45;2.17;;;;;;;29.19;37.84;101511.91;4997609;28;20226;-81
2022/08/21 10:55:33;;;;;;;5.63;2.45;;;;;;;28.31;38.24;101516.72;4975651;28;20615;-81
2022/08/21 10:58:49;;;;;;;5.30;2.38;;;;;;;27.98;38.63;101519.91;4990038;28;20194;-83
2022/08/21 11:01:27;;;;;;;4.68;2.97;;;;;;;28.52;38.48;101514.97;4980229;28;20220;-82
2022/08/21 11:04:26;;;;;;;5.05;2.70;;;;;;;29.39;37.59;101509.16;4966334;28;20195;-82
2022/08/21 11:07:14;;;;;;;4.85;2.17;;;;;;;28.64;37.61;101514.47;4984707;28;20228;-82
2022/08/21 11:09:45;;;;;;;6.97;2.58;;;;;;;28.82;37.50;101501.28;5009016;28;20259;-81
2022/08/21 11:12:46;;;;;;;3.78;1.73;;;;;;;27.74;39.12;101526.16;5009741;28;20234;-83
2022/08/21 11:15:19;;;;;;;5.63;2.38;;;;;;;27.57;38.90;101521.56;4999281;28;20210;-83
2022/08/21 11:17:53;;;;;;;5.85;1.90;;;;;;;28.84;38.07;101515.28;5007986;28;20187;-82
2022/08/21 11:20:47;;;;;;;4.35;2.03;;;;;;;29.42;38.07;101513.44;5007653;28;20265;-81
2022/08/21 11:23:15;;;;;;;5.90;1.92;;;;;;;29.28;37.37;101516.75;4959160;28;20337;-80
2022/08/21 11:25:47;;;;;;;4.03;1.98;;;;;;;29.04;39.10;101517.03;4969980;28;20283;-80
2022/08/21 11:28:24;;;;;;;6.13;2.05;;;;;;;28.79;38.07;101519.88;4993290;28;20191;-80
2022/08/21 11:30:59;;;;;;;4.18;2.00;;;;;;;29.42;36.36;101518.72;5009428;28;20656;-81
2022/08/21 11:33:48;;;;;;;5.90;2.60;;;;;;;29.63;36.33;101510.69;5010171;28;20588;-81
2022/08/21 11:36:33;;;;;;;3.65;1.80;;;;;;;29.60;34.99;101518.75;5002928;28;20195;-83
2022/08/21 11:39:16;;;;;;;4.47;1.98;;;;;;;29.15;37.00;101517.41;5007192;28;20202;-80
2022/08/21 11:42:19;;;;;;;4.65;2.10;;;;;;;30.34;35.55;101514.19;5008827;28;20211;-82